Flight Track Log - Related Links

Times and Time Zones

All times are in EDT time to prevent confusion due to time zone crossing. See the ACA831 flight status page for this flight to view local times or setup timezone preferences in your user account.

Time Position Orientation Groundspeed Altitude Reporting Facility
EDT Latitude Longitude Course Direction KTS km/h meters Rate Location/Type
Sun 06:31:52 46.2260 6.0920 47° Northeast 4 8  Level FlightAware ADS-B
Sun 06:32:10 46.2290 6.0960 43° Northeast 80 148 2,372 Level FlightAware ADS-B
Sun 06:32:35 46.2470 6.1220 45° Northeast 173 320 518 1,012 Climbing FlightAware ADS-B
Sun 06:33:06 46.2670 6.1500 44° Northeast 179 332 945 681 Climbing FlightAware ADS-B
Sun 06:34:01 46.2990 6.2010 48° Northeast 191 354 1,494 574 Climbing FlightAware ADS-B
Sun 06:36:00 46.4186 5.9036 282° West  Level Estimated
Sun 06:37:00 46.4786 5.7531 294° West  Level Estimated
Sun 06:38:00 46.5384 5.6023 289° West  Level Estimated
Sun 06:39:00 46.5980 5.4511 290° West  Level Estimated
Sun 06:40:00 46.5902 5.2772 266° West  Level FlightAware Approximate
Sun 06:40:29 45.9950 5.6480 266° West 428 793 5,182  Level FlightAware ADS-B
Sun 06:41:03 45.9720 5.5530 251° West 423 784 5,578 682 Climbing FlightAware ADS-B
Sun 06:42:35 45.9590 5.2910 266° West 428 793 6,614 629 Climbing FlightAware ADS-B
Sun 06:43:37 45.9520 5.1150 267° West 435 806 7,193 520 Climbing FlightAware ADS-B
Sun 06:44:17 45.9470 4.9970 267° West 443 821 7,498 429 Climbing FlightAware ADS-B
Sun 06:45:49 45.9360 4.7240 300° West 458 848 8,138 360 Climbing FlightAware ADS-B
Sun 06:46:00 46.0495 4.7404 300° West  Level Estimated
Sun 06:48:00 46.0659 4.3972 300° West  Level Estimated
Sun 06:48:51 45.9210 4.1860 300° West 444 822 9,144  Level FlightAware ADS-B
Sun 06:49:00 46.1250 4.2470 300° West  Level Estimated
Sun 06:51:00 46.0480 3.8636 300° West  Level Estimated
Sun 06:51:25 45.9260 3.7510 300° West 444 822 9,144  Level FlightAware ADS-B
Sun 06:52:21 45.9270 3.5680 271° West 445 824 9,144  Level FlightAware ADS-B
Sun 06:52:59 45.9280 3.4560 271° West 446 826 9,144 90 Level FlightAware ADS-B
Sun 06:53:42 45.9280 3.3370 270° West 445 824 9,266 208 Climbing FlightAware ADS-B
Sun 06:54:27 45.9290 3.2060 271° West 445 824 9,449 264 Climbing FlightAware ADS-B
Sun 06:55:19 45.9300 3.0530 271° West 443 821 9,693 174 Climbing FlightAware ADS-B
Sun 06:56:12 45.9300 2.8850 270° West 442 819 9,754 16 Climbing FlightAware ADS-B
Sun 06:58:00 46.0344 2.6135 299° West  Level Estimated
Sun 06:59:00 46.0922 2.4623 299° West  Level Estimated
Sun 06:59:08 45.9300 2.3730 299° West 439 813 9,754  Level FlightAware ADS-B
Sun 06:59:52 45.9290 2.2510 269° West 440 814 9,754  Level FlightAware ADS-B
Sun 07:01:24 45.9280 1.9810 270° West 442 819 9,754  Level FlightAware ADS-B
Sun 07:02:03 45.9270 1.8720 269° West 442 819 9,754  Level FlightAware ADS-B
Sun 07:03:03 45.9260 1.7040 270° West 443 821 9,754  Level FlightAware ADS-B
Sun 07:03:48 45.9250 1.5620 269° West 444 822 9,754  Level FlightAware ADS-B
Sun 07:04:28 45.9240 1.4410 269° West 445 824 9,754  Level FlightAware ADS-B
Sun 07:05:48 45.8990 1.2070 261° West 447 827 9,754  Level FlightAware ADS-B
Sun 07:06:33 45.8800 1.0770 258° West 448 830 9,754  Level FlightAware ADS-B
Sun 07:07:18 45.8620 0.9520 258° West 450 834 9,754  Level FlightAware ADS-B
Sun 07:07:58 45.8450 0.8320 259° West 450 834 9,754  Level FlightAware ADS-B
Sun 07:08:43 45.8270 0.7050 259° West 451 835 9,754  Level FlightAware ADS-B
Sun 07:09:23 45.8100 0.5880 258° West 452 837 9,754  Level FlightAware ADS-B
Sun 07:10:27 45.7870 0.3920 261° West 453 838 9,754  Level FlightAware ADS-B
Sun 07:12:07 45.7910 0.0990 271° West 453 838 9,754  Level FlightAware ADS-B
Sun 07:12:52 45.7940 -0.0380 272° West 453 838 9,754  Level FlightAware ADS-B
Sun 07:13:37 45.7970 -0.1770 272° West 452 837 9,754  Level FlightAware ADS-B
Sun 07:14:17 45.8000 -0.2940 272° West 451 835 9,754  Level FlightAware ADS-B
Sun 07:16:00 45.8955 -0.5555 298° West  Level Estimated
Sun 07:17:00 45.9508 -0.7082 298° West  Level Estimated
Sun 07:18:00 46.0059 -0.8612 297° West  Level Estimated
Sun 07:19:00 46.0608 -1.0145 297° West  Level Estimated
Sun 07:20:00 46.1156 -1.1682 297° West  Level Estimated
Sun 07:21:00 46.1701 -1.3221 297° West  Level Estimated
Sun 07:22:00 46.2244 -1.4764 297° West  Level Estimated
Sun 07:23:00 46.2785 -1.6309 297° West  Level Estimated
Sun 07:24:00 46.3324 -1.7858 297° West  Level Estimated
Sun 07:25:00 46.3860 -1.9410 297° West  Level Estimated
Sun 07:26:00 46.4395 -2.0964 297° West  Level Estimated
Sun 07:27:00 46.4928 -2.2522 296° West  Level Estimated
Sun 07:28:00 46.5458 -2.4083 296° West  Level Estimated
Sun 07:28:46 45.8960 -2.4820 296° West 456 845 9,754  Level FlightAware ADS-B
Sun 07:29:00 46.5986 -2.5647 296° West  Level Estimated
Sun 07:29:50 45.9020 -2.6470 273° West 456 845 9,754  Level FlightAware ADS-B
Sun 07:30:24 45.9270 -3.2030 274° West 459 850 9,754  Level FlightAware ADS-B
Sun 07:31:21 45.9330 -3.3750 273° West 458 848 9,754  Level FlightAware ADS-B
Sun 07:32:17 45.9390 -3.5480 273° West 456 845 9,754  Level FlightAware ADS-B
Sun 07:35:00 46.0820 -3.9689 296° West  Level Estimated
Sun 07:36:00 46.1343 -4.1243 296° West  Level Estimated
Sun 07:37:00 46.1863 -4.2801 296° West  Level Estimated
Sun 07:37:57 45.9680 -4.5710 296° West 452 837 9,754  Level FlightAware ADS-B
Sun 07:38:00 46.2381 -4.4362 296° West  Level Estimated
Sun 07:38:39 45.9710 -4.6990 272° West 452 837 9,754  Level FlightAware ADS-B
Sun 07:39:23 45.9740 -4.8300 272° West 452 837 9,754  Level FlightAware ADS-B
Sun 07:39:59 45.9770 -4.9380 272° West 452 837 9,754  Level FlightAware ADS-B
Sun 07:40:55 45.9800 -5.1040 272° West 453 838 9,754  Level FlightAware ADS-B
Sun 07:42:31 45.9850 -5.3920 272° West 454 840 9,754  Level FlightAware ADS-B
Sun 07:44:26 45.9890 -5.6970 271° West 454 840 9,754 -20 Level FlightAware ADS-B
Sun 07:47:00 46.1194 -6.0982 295° West  Level Estimated
Sun 07:48:00 46.1698 -6.2550 295° West  Level Estimated
Sun 07:49:00 46.2201 -6.4121 295° West  Level Estimated
Sun 07:50:00 46.2701 -6.5695 295° West  Level Estimated
Sun 07:51:00 46.3199 -6.7272 295° West  Level Estimated
Sun 07:52:00 46.3694 -6.8851 295° West  Level Estimated
Sun 07:53:00 46.4188 -7.0434 294° West  Level Estimated
Sun 07:54:00 46.4679 -7.2019 294° West  Level Estimated
Sun 07:55:00 46.5168 -7.3607 294° West  Level Estimated
Sun 07:56:00 46.5655 -7.5198 294° West  Level Estimated
Sun 07:57:00 46.6140 -7.6792 294° West  Level Estimated
Sun 07:58:00 46.6622 -7.8389 294° West  Level Estimated
Sun 07:59:00 46.7103 -7.9989 294° West  Level Estimated
Sun 08:00:00 46.7581 -8.1591 294° West  Level Estimated
Sun 08:01:00 46.8056 -8.3197 293° West  Level Estimated
Sun 08:02:00 46.8530 -8.4805 293° West  Level Estimated
Sun 08:03:00 46.9001 -8.6416 293° West  Level Estimated
Sun 08:04:00 46.9472 -8.8036 293° West  Level Estimated
Sun 08:05:00 46.9941 -8.9660 293° West  Level Estimated
Sun 08:06:00 47.0408 -9.1287 293° West  Level Estimated
Sun 08:07:00 47.0872 -9.2916 293° West  Level Estimated
Sun 08:08:00 47.1334 -9.4548 293° West  Level Estimated
Sun 08:09:00 47.1793 -9.6183 293° West  Level Estimated
Sun 08:10:00 47.2251 -9.7821 292° West  Level Estimated
Sun 08:11:00 47.2705 -9.9462 292° West  Level Estimated
Sun 08:12:00 47.3158 -10.1105 292° West  Level Estimated
Sun 08:12:13 45.9330 -10.5830 292° West 442 819 9,144  Level FlightAware ADS-B
Sun 08:13:13 45.9140 -10.8940 265° West 441 816 9,144  Level FlightAware ADS-B
Sun 08:15:10 45.8940 -11.2240 265° West 439 813 9,144  Level FlightAware ADS-B
Sun 08:17:00 45.9797 -11.5162 293° West  Level Estimated
Sun 08:17:12 45.8760 -11.5250 293° West 439 813 9,144  Level FlightAware ADS-B
Sun 08:20:00 46.0060 -11.9719 293° West  Level Estimated
Sun 08:21:00 46.0520 -12.1320 293° West  Level Estimated
Sun 08:22:00 46.0978 -12.2923 292° West  Level Estimated
Sun 08:23:00 46.1434 -12.4530 292° West  Level Estimated
Sun 08:24:00 46.1887 -12.6139 292° West  Level Estimated
Sun 08:25:00 46.2338 -12.7750 292° West  Level Estimated
Sun 08:26:00 46.2787 -12.9365 292° West  Level Estimated
Sun 08:27:00 46.3234 -13.0981 292° West  Level Estimated
Sun 08:28:00 46.3678 -13.2601 292° West  Level Estimated
Sun 08:29:00 46.4120 -13.4223 292° West  Level Estimated
Sun 08:30:00 46.4560 -13.5848 291° West  Level Estimated
Sun 08:31:00 46.4997 -13.7475 291° West  Level Estimated
Sun 08:32:00 46.5432 -13.9105 291° West  Level Estimated
Sun 08:33:00 46.5865 -14.0738 291° West  Level Estimated
Sun 08:34:00 46.6295 -14.2373 291° West  Level Estimated
Sun 08:35:00 46.6723 -14.4011 291° West  Level Estimated
Sun 08:36:00 46.7149 -14.5651 291° West  Level Estimated
Sun 08:37:00 46.7573 -14.7294 291° West  Level Estimated
Sun 08:38:00 46.7994 -14.8940 291° West  Level Estimated
Sun 08:39:00 46.8412 -15.0588 290° West  Level Estimated
Sun 08:40:00 46.8829 -15.2239 290° West  Level Estimated
Sun 08:41:00 46.9243 -15.3892 290° West  Level Estimated
Sun 08:42:00 46.9654 -15.5548 290° West  Level Estimated
Sun 08:43:00 47.0063 -15.7206 290° West  Level Estimated
Sun 08:44:00 47.0470 -15.8867 290° West  Level Estimated
Sun 08:45:00 47.0875 -16.0531 290° West  Level Estimated
Sun 08:46:00 47.1277 -16.2197 290° West  Level Estimated
Sun 08:47:00 47.1676 -16.3865 289° West  Level Estimated
Sun 08:48:00 47.2073 -16.5536 289° West  Level Estimated
Sun 08:49:00 47.2468 -16.7210 289° West  Level Estimated
Sun 08:50:00 47.2860 -16.8886 289° West  Level Estimated
Sun 08:51:00 47.3250 -17.0564 289° West  Level Estimated
Sun 08:52:00 47.3637 -17.2245 289° West  Level Estimated
Sun 08:53:00 47.4022 -17.3928 289° West  Level Estimated
Sun 08:54:00 47.4404 -17.5614 289° West  Level Estimated
Sun 08:55:00 47.4784 -17.7302 288° West  Level Estimated
Sun 08:56:00 47.5162 -17.8993 288° West  Level Estimated
Sun 08:57:00 47.5537 -18.0686 288° West  Level Estimated
Sun 08:58:00 47.5909 -18.2382 288° West  Level Estimated
Sun 08:59:00 47.6277 -18.4068 288° West  Level Estimated
Sun 09:00:00 47.6642 -18.5756 288° West  Level Estimated
Sun 09:01:00 47.7004 -18.7447 288° West  Level Estimated
Sun 09:02:00 47.7364 -18.9140 288° West  Level Estimated
Sun 09:03:00 47.7722 -19.0836 287° West  Level Estimated
Sun 09:04:00 47.8077 -19.2534 287° West  Level Estimated
Sun 09:05:00 47.8429 -19.4234 287° West  Level Estimated
Sun 09:06:00 47.8779 -19.5937 287° West  Level Estimated
Sun 09:07:00 47.9126 -19.7641 287° West  Level Estimated
Sun 09:07:36 45.0000 -20.0000 274° West 446 826 9,144  Level ETMS Enhanced Traffic Management System
Sun 09:08:00 47.9471 -19.9348 287° West  Level Estimated
Sun 09:09:00 47.9814 -20.1058 287° West  Level Estimated
Sun 09:10:00 48.0154 -20.2769 287° West  Level Estimated
Sun 09:11:00 48.0491 -20.4483 286° West  Level Estimated
Sun 09:12:00 48.0826 -20.6199 286° West  Level Estimated
Sun 09:13:00 45.0527 -21.4013 273° West 446 826 9,144  Level FlightAware Transoceanic
Sun 09:14:00 45.0581 -21.5766 272° West 446 826 9,144  Level FlightAware Transoceanic
Sun 09:15:00 45.0632 -21.7520 272° West 446 826 9,144  Level FlightAware Transoceanic
Sun 09:16:00 45.0680 -21.9274 272° West 446 826 9,144  Level FlightAware Transoceanic
Sun 09:17:00 45.0726 -22.1028 272° West 446 826 9,144  Level FlightAware Transoceanic
Sun 09:18:00 45.0769 -22.2783 272° West 446 826 9,144  Level FlightAware Transoceanic
Sun 09:19:00 45.0809 -22.4537 272° West 446 826 9,144  Level FlightAware Transoceanic
Sun 09:20:00 45.0847 -22.6292 272° West 446 826 9,144  Level FlightAware Transoceanic
Sun 09:21:00 45.0882 -22.8048 272° West 446 826 9,144  Level FlightAware Transoceanic
Sun 09:22:00 45.0914 -22.9803 271° West 446 826 9,144  Level FlightAware Transoceanic
Sun 09:23:00 45.0944 -23.1559 271° West 446 826 9,144  Level FlightAware Transoceanic
Sun 09:24:00 45.0971 -23.3314 271° West 446 826 9,144  Level FlightAware Transoceanic
Sun 09:25:00 45.0995 -23.5070 271° West 446 826 9,144  Level FlightAware Transoceanic
Sun 09:26:00 45.1017 -23.6826 271° West 446 826 9,144  Level FlightAware Transoceanic
Sun 09:27:00 45.1035 -23.8583 271° West 446 826 9,144  Level FlightAware Transoceanic
Sun 09:28:00 45.1051 -24.0339 271° West 446 826 9,144  Level FlightAware Transoceanic
Sun 09:29:00 45.1065 -24.2095 271° West 446 826 9,144  Level FlightAware Transoceanic
Sun 09:30:00 45.1076 -24.3852 270° West 446 826 9,144  Level FlightAware Transoceanic
Sun 09:31:00 45.1084 -24.5609 270° West 446 826 9,144  Level FlightAware Transoceanic
Sun 09:32:00 45.1089 -24.7365 270° West 446 826 9,144  Level FlightAware Transoceanic
Sun 09:33:00 45.1092 -24.9122 270° West 446 826 9,144  Level FlightAware Transoceanic
Sun 09:34:00 45.1092 -25.0878 270° West 446 826 9,144  Level FlightAware Transoceanic
Sun 09:35:00 45.1089 -25.2635 270° West 446 826 9,144  Level FlightAware Transoceanic
Sun 09:36:00 45.1084 -25.4391 270° West 446 826 9,144  Level FlightAware Transoceanic
Sun 09:37:00 45.1076 -25.6148 270° West 446 826 9,144  Level FlightAware Transoceanic
Sun 09:38:00 45.1065 -25.7905 269° West 446 826 9,144  Level FlightAware Transoceanic
Sun 09:39:00 45.1051 -25.9661 269° West 446 826 9,144  Level FlightAware Transoceanic
Sun 09:40:00 45.1035 -26.1417 269° West 446 826 9,144  Level FlightAware Transoceanic
Sun 09:41:00 45.1017 -26.3174 269° West 446 826 9,144  Level FlightAware Transoceanic
Sun 09:42:00 45.0995 -26.4930 269° West 446 826 9,144  Level FlightAware Transoceanic
Sun 09:43:00 45.0971 -26.6686 269° West 446 826 9,144  Level FlightAware Transoceanic
Sun 09:44:00 45.0944 -26.8441 269° West 446 826 9,144  Level FlightAware Transoceanic
Sun 09:45:00 45.0914 -27.0197 269° West 446 826 9,144  Level FlightAware Transoceanic
Sun 09:46:00 45.0882 -27.1952 268° West 446 826 9,144  Level FlightAware Transoceanic
Sun 09:47:00 45.0847 -27.3708 268° West 446 826 9,144  Level FlightAware Transoceanic
Sun 09:48:00 45.0809 -27.5463 268° West 446 826 9,144  Level FlightAware Transoceanic
Sun 09:49:00 45.0769 -27.7217 268° West 446 826 9,144  Level FlightAware Transoceanic
Sun 09:50:00 45.0726 -27.8972 268° West 446 826 9,144  Level FlightAware Transoceanic
Sun 09:51:00 45.0680 -28.0726 268° West 446 826 9,144  Level FlightAware Transoceanic
Sun 09:52:00 45.0632 -28.2480 268° West 446 826 9,144  Level FlightAware Transoceanic
Sun 09:53:00 45.0581 -28.4234 268° West 446 826 9,144  Level FlightAware Transoceanic
Sun 09:54:00 45.0527 -28.5987 267° West 446 826 9,144  Level FlightAware Transoceanic
Sun 09:55:00 45.0470 -28.7740 267° West 446 826 9,144  Level FlightAware Transoceanic
Sun 09:56:00 45.0411 -28.9493 267° West 446 826 9,144  Level FlightAware Transoceanic
Sun 09:57:00 45.0349 -29.1245 267° West 446 826 9,144  Level FlightAware Transoceanic
Sun 09:58:00 45.0285 -29.2997 267° West 446 826 9,144  Level FlightAware Transoceanic
Sun 09:59:00 45.0218 -29.4748 267° West 446 826 9,144  Level FlightAware Transoceanic
Sun 10:00:00 45.0148 -29.6499 267° West 446 826 9,144  Level FlightAware Transoceanic
Sun 10:01:00 45.0075 -29.8250 267° West 446 826 9,144  Level FlightAware Transoceanic
Sun 10:02:00 45.0003 -29.9936 267° West  Level FlightAware Approximate
Sun 10:03:00 44.9927 -30.1622 266° West  Level FlightAware Approximate
Sun 10:04:00 45.0066 -30.1559 273° West  Level FlightAware Approximate
Sun 10:04:00 45.0000 -30.0000 274° West 454 840 9,144  Level ETMS Enhanced Traffic Management System
Sun 10:05:00 45.0135 -30.3246 273° West  Level FlightAware Approximate
Sun 10:06:00 45.0202 -30.4934 273° West  Level FlightAware Approximate
Sun 10:07:00 45.0266 -30.6622 273° West  Level FlightAware Approximate
Sun 10:08:00 45.0327 -30.8310 273° West  Level FlightAware Approximate
Sun 10:09:00 45.0387 -30.9998 273° West  Level FlightAware Approximate
Sun 10:10:00 45.0535 -31.4263 273° West 454 840 9,144  Level FlightAware Transoceanic
Sun 10:11:00 45.0589 -31.6048 272° West 454 840 9,144  Level FlightAware Transoceanic
Sun 10:12:00 45.0640 -31.7833 272° West 454 840 9,144  Level FlightAware Transoceanic
Sun 10:13:00 45.0689 -31.9618 272° West 454 840 9,144  Level FlightAware Transoceanic
Sun 10:14:00 45.0735 -32.1404 272° West 454 840 9,144  Level FlightAware Transoceanic
Sun 10:15:00 45.0779 -32.3190 272° West 454 840 9,144  Level FlightAware Transoceanic
Sun 10:16:00 45.0819 -32.4976 272° West 454 840 9,144  Level FlightAware Transoceanic
Sun 10:17:00 45.0857 -32.6763 272° West 454 840 9,144  Level FlightAware Transoceanic
Sun 10:18:00 45.0891 -32.8549 272° West 454 840 9,144  Level FlightAware Transoceanic
Sun 10:19:00 45.0924 -33.0336 271° West 454 840 9,144  Level FlightAware Transoceanic
Sun 10:20:00 45.0953 -33.2123 271° West 454 840 9,144  Level FlightAware Transoceanic
Sun 10:21:00 45.0979 -33.3910 271° West 454 840 9,144  Level FlightAware Transoceanic
Sun 10:22:00 45.1003 -33.5698 271° West 454 840 9,144  Level FlightAware Transoceanic
Sun 10:23:00 45.1024 -33.7485 271° West 454 840 9,144  Level FlightAware Transoceanic
Sun 10:24:00 45.1042 -33.9273 271° West 454 840 9,144  Level FlightAware Transoceanic
Sun 10:25:00 45.1057 -34.1060 271° West 454 840 9,144  Level FlightAware Transoceanic
Sun 10:26:00 45.1070 -34.2848 271° West 454 840 9,144  Level FlightAware Transoceanic
Sun 10:27:00 45.1080 -34.4636 270° West 454 840 9,144  Level FlightAware Transoceanic
Sun 10:28:00 45.1087 -34.6424 270° West 454 840 9,144  Level FlightAware Transoceanic
Sun 10:29:00 45.1091 -34.8212 270° West 454 840 9,144  Level FlightAware Transoceanic
Sun 10:30:00 45.1092 -35.0000 270° West 454 840 9,144  Level FlightAware Transoceanic
Sun 10:31:00 45.1091 -35.1788 270° West 454 840 9,144  Level FlightAware Transoceanic
Sun 10:32:00 45.1087 -35.3576 270° West 454 840 9,144  Level FlightAware Transoceanic
Sun 10:33:00 45.1080 -35.5364 270° West 454 840 9,144  Level FlightAware Transoceanic
Sun 10:34:00 45.1070 -35.7152 269° West 454 840 9,144  Level FlightAware Transoceanic
Sun 10:35:00 45.1057 -35.8940 269° West 454 840 9,144  Level FlightAware Transoceanic
Sun 10:36:00 45.1042 -36.0727 269° West 454 840 9,144  Level FlightAware Transoceanic
Sun 10:37:00 45.1024 -36.2515 269° West 454 840 9,144  Level FlightAware Transoceanic
Sun 10:38:00 45.1003 -36.4302 269° West 454 840 9,144  Level FlightAware Transoceanic
Sun 10:39:00 45.0979 -36.6090 269° West 454 840 9,144  Level FlightAware Transoceanic
Sun 10:40:00 45.0953 -36.7877 269° West 454 840 9,144  Level FlightAware Transoceanic
Sun 10:41:00 45.0924 -36.9664 269° West 454 840 9,144  Level FlightAware Transoceanic
Sun 10:42:00 45.0891 -37.1451 268° West 454 840 9,144  Level FlightAware Transoceanic
Sun 10:43:00 45.0857 -37.3237 268° West 454 840 9,144  Level FlightAware Transoceanic
Sun 10:44:00 45.0819 -37.5024 268° West 454 840 9,144  Level FlightAware Transoceanic
Sun 10:45:00 45.0779 -37.6810 268° West 454 840 9,144  Level FlightAware Transoceanic
Sun 10:46:00 45.0735 -37.8596 268° West 454 840 9,144  Level FlightAware Transoceanic
Sun 10:47:00 45.0689 -38.0382 268° West 454 840 9,144  Level FlightAware Transoceanic
Sun 10:48:00 45.0640 -38.2167 268° West 454 840 9,144  Level FlightAware Transoceanic
Sun 10:49:00 45.0589 -38.3952 268° West 454 840 9,144  Level FlightAware Transoceanic
Sun 10:50:00 45.0535 -38.5737 267° West 454 840 9,144  Level FlightAware Transoceanic
Sun 10:51:00 45.0477 -38.7521 267° West 454 840 9,144  Level FlightAware Transoceanic
Sun 10:52:00 45.0418 -38.9305 267° West 454 840 9,144  Level FlightAware Transoceanic
Sun 10:53:00 45.0355 -39.1088 267° West 454 840 9,144  Level FlightAware Transoceanic
Sun 10:54:00 45.0289 -39.2872 267° West 454 840 9,144  Level FlightAware Transoceanic
Sun 10:55:00 45.0221 -39.4654 267° West 454 840 9,144  Level FlightAware Transoceanic
Sun 10:56:00 45.0150 -39.6437 267° West 454 840 9,144  Level FlightAware Transoceanic
Sun 10:57:00 45.0076 -39.8219 267° West 454 840 9,144  Level FlightAware Transoceanic
Sun 10:58:00 45.0004 -39.9905 267° West  Level FlightAware Approximate
Sun 10:59:00 44.9930 -40.1591 267° West  Level FlightAware Approximate
Sun 11:00:00 45.0064 -40.1497 273° West  Level FlightAware Approximate
Sun 11:01:00 45.0133 -40.3184 273° West  Level FlightAware Approximate
Sun 11:02:00 45.0200 -40.4871 273° West  Level FlightAware Approximate
Sun 11:03:00 45.0264 -40.6559 273° West  Level FlightAware Approximate
Sun 11:03:00 45.0000 -40.0000 274° West 471 872 9,144  Level ETMS Enhanced Traffic Management System
Sun 11:04:00 45.0326 -40.8247 273° West  Level FlightAware Approximate
Sun 11:05:00 45.0387 -40.9971 273° West  Level FlightAware Approximate
Sun 11:06:00 45.0445 -41.1695 273° West  Level FlightAware Approximate
Sun 11:07:00 45.0500 -41.3420 273° West  Level FlightAware Approximate
Sun 11:08:00 45.0553 -41.5145 273° West  Level FlightAware Approximate
Sun 11:09:00 45.0708 -42.0346 272° West 471 872 9,144  Level FlightAware Transoceanic
Sun 11:10:00 45.0755 -42.2198 272° West 471 872 9,144  Level FlightAware Transoceanic
Sun 11:11:00 45.0798 -42.4050 272° West 471 872 9,144  Level FlightAware Transoceanic
Sun 11:12:00 45.0839 -42.5902 272° West 471 872 9,144  Level FlightAware Transoceanic
Sun 11:13:00 45.0876 -42.7755 272° West 471 872 9,144  Level FlightAware Transoceanic
Sun 11:14:00 45.0911 -42.9608 271° West 471 872 9,144  Level FlightAware Transoceanic
Sun 11:15:00 45.0942 -43.1461 271° West 471 872 9,144  Level FlightAware Transoceanic
Sun 11:16:00 45.0971 -43.3314 271° West 471 872 9,144  Level FlightAware Transoceanic
Sun 11:17:00 45.0996 -43.5168 271° West 471 872 9,144  Level FlightAware Transoceanic
Sun 11:18:00 45.1019 -43.7022 271° West 471 872 9,144  Level FlightAware Transoceanic
Sun 11:19:00 45.1038 -43.8875 271° West 471 872 9,144  Level FlightAware Transoceanic
Sun 11:20:00 45.1055 -44.0729 271° West 471 872 9,144  Level FlightAware Transoceanic
Sun 11:21:00 45.1068 -44.2583 271° West 471 872 9,144  Level FlightAware Transoceanic
Sun 11:22:00 45.1079 -44.4437 270° West 471 872 9,144  Level FlightAware Transoceanic
Sun 11:23:00 45.1086 -44.6292 270° West 471 872 9,144  Level FlightAware Transoceanic
Sun 11:24:00 45.1091 -44.8146 270° West 471 872 9,144  Level FlightAware Transoceanic
Sun 11:25:00 45.1092 -45.0000 270° West 471 872 9,144  Level FlightAware Transoceanic
Sun 11:26:00 45.1091 -45.1854 270° West 471 872 9,144  Level FlightAware Transoceanic
Sun 11:27:00 45.1086 -45.3708 270° West 471 872 9,144  Level FlightAware Transoceanic
Sun 11:28:00 45.1079 -45.5563 270° West 471 872 9,144  Level FlightAware Transoceanic
Sun 11:29:00 45.1068 -45.7417 269° West 471 872 9,144  Level FlightAware Transoceanic
Sun 11:30:00 45.1055 -45.9271 269° West 471 872 9,144  Level FlightAware Transoceanic
Sun 11:31:00 45.1038 -46.1125 269° West 471 872 9,144  Level FlightAware Transoceanic
Sun 11:32:00 45.1019 -46.2978 269° West 471 872 9,144  Level FlightAware Transoceanic
Sun 11:33:00 45.0996 -46.4832 269° West 471 872 9,144  Level FlightAware Transoceanic
Sun 11:34:00 45.0971 -46.6686 269° West 471 872 9,144  Level FlightAware Transoceanic
Sun 11:35:00 45.0942 -46.8539 269° West 471 872 9,144  Level FlightAware Transoceanic
Sun 11:36:00 45.0911 -47.0392 269° West 471 872 9,144  Level FlightAware Transoceanic
Sun 11:37:00 45.0876 -47.2245 268° West 471 872 9,144  Level FlightAware Transoceanic
Sun 11:38:00 45.0839 -47.4098 268° West 471 872 9,144  Level FlightAware Transoceanic
Sun 11:39:00 45.0798 -47.5950 268° West 471 872 9,144  Level FlightAware Transoceanic
Sun 11:40:00 45.0755 -47.7802 268° West 471 872 9,144  Level FlightAware Transoceanic
Sun 11:41:00 45.0708 -47.9654 268° West 471 872 9,144  Level FlightAware Transoceanic
Sun 11:42:00 45.0659 -48.1506 268° West 471 872 9,144  Level FlightAware Transoceanic
Sun 11:43:00 45.0606 -48.3357 268° West 471 872 9,144  Level FlightAware Transoceanic
Sun 11:44:00 45.0551 -48.5208 268° West 471 872 9,144  Level FlightAware Transoceanic
Sun 11:45:00 45.0493 -48.7058 267° West 471 872 9,144  Level FlightAware Transoceanic
Sun 11:46:00 45.0431 -48.8908 267° West 471 872 9,144  Level FlightAware Transoceanic
Sun 11:47:00 45.0367 -49.0758 267° West 471 872 9,144  Level FlightAware Transoceanic
Sun 11:48:00 45.0299 -49.2607 267° West 471 872 9,144  Level FlightAware Transoceanic
Sun 11:49:00 45.0229 -49.4456 267° West 471 872 9,144  Level FlightAware Transoceanic
Sun 11:50:00 45.0156 -49.6305 267° West 471 872 9,144  Level FlightAware Transoceanic
Sun 11:51:00 45.0079 -49.8153 267° West 471 872 9,144  Level FlightAware Transoceanic
Sun 11:52:00 44.9998 -49.9874 266° West  Level FlightAware Approximate
Sun 11:53:00 45.0077 -49.8152 86° East  Level FlightAware Approximate
Sun 11:54:00 45.0000 -50.0000 265° West 511 946 9,144  Level ETMS Enhanced Traffic Management System
Sun 11:54:00 45.0290 -49.9852 265° West  Level Estimated
Sun 11:55:00 45.0135 -50.1563 263° West  Level FlightAware Approximate
Sun 11:55:23 44.9667 -50.5500 264° West 470 871 9,144  Level Gander Center
Sun 11:56:00 44.9978 -50.3271 263° West  Level FlightAware Approximate
Sun 11:56:23 44.9500 -50.7333 263° West 410 760 9,144  Level Gander Center
Sun 11:57:00 44.9818 -50.4977 263° West  Level FlightAware Approximate
Sun 11:57:23 44.9833 -50.9000 286° West 460 851 9,144  Level Gander Center
Sun 11:58:00 44.9656 -50.6682 262° West  Level FlightAware Approximate
Sun 11:58:23 45.0000 -51.0833 277° West 460 851 9,144  Level Gander Center
Sun 11:59:00 44.9492 -50.8386 262° West  Level FlightAware Approximate
Sun 11:59:23 45.0500 -51.2667 291° West 470 871 9,235  Level Gander Center
Sun 12:00:00 44.9323 -51.0129 264° West  Level FlightAware Approximate
Sun 12:00:23 45.0667 -51.4167 279° West 470 871 9,632  Level Gander Center
Sun 12:01:23 45.1167 -51.6000 291° West 460 851 10,119 457 Climbing Gander Center
Sun 12:02:23 45.1333 -51.7667 278° West 460 851 10,546 381 Climbing Gander Center
Sun 12:03:23 45.1667 -51.9500 285° West 450 834 10,881 213 Climbing Gander Center
Sun 12:04:23 45.2167 -52.1333 291° West 450 834 10,973 46 Climbing Gander Center
Sun 12:05:23 45.2333 -52.3000 278° West 460 851 10,973  Level Gander Center
Sun 12:06:23 45.2667 -52.4833 285° West 460 851 10,973  Level Gander Center
Sun 12:07:23 45.2833 -52.6500 278° West 450 834 10,973  Level Gander Center
Sun 12:08:03 45.3167 -52.7667 292° West 450 834 10,973  Level Moncton Center
Sun 12:09:03 45.3333 -52.9333 278° West 450 834 10,973  Level Moncton Center
Sun 12:10:03 45.3667 -53.1167 285° West 450 834 10,973  Level Moncton Center
Sun 12:11:03 45.4000 -53.2667 288° West 450 834 10,973  Level Moncton Center
Sun 12:12:03 45.4333 -53.4500 285° West 450 834 10,973  Level Moncton Center
Sun 12:13:03 45.4500 -53.6167 278° West 460 851 10,973  Level Moncton Center
Sun 12:14:03 45.4833 -53.8000 285° West 470 871 10,973  Level Moncton Center
Sun 12:15:03 45.5167 -54.0000 283° West 450 834 10,973  Level Moncton Center
Sun 12:16:03 45.5333 -54.1500 279° West 450 834 10,973  Level Moncton Center
Sun 12:16:46 45.5667 -54.2667 292° West 460 851 10,973  Level Gander Center
Sun 12:17:46 45.6000 -54.4667 283° West 450 834 10,973  Level Gander Center
Sun 12:18:23 45.6167 -54.5833 282° West 450 834 10,973  Level Gander Center
Sun 12:19:03 45.6333 -54.6667 286° West 450 834 10,973  Level Moncton Center
Sun 12:20:03 45.6500 -54.8500 277° West 460 851 10,973  Level Moncton Center
Sun 12:21:03 45.6833 -55.0500 283° West 450 834 10,973  Level Moncton Center
Sun 12:22:03 45.7167 -55.2000 288° West 450 834 10,973  Level Moncton Center
Sun 12:23:03 45.7500 -55.4000 284° West 450 834 10,973  Level Moncton Center
Sun 12:24:03 45.7667 -55.5667 278° West 440 814 10,973  Level Moncton Center
Sun 12:25:03 45.7833 -55.7167 279° West 450 834 10,973  Level Moncton Center
Sun 12:31:08 45.9440 -56.7410 279° West 434 803 10,973  Level FlightAware ADS-B
Sun 12:35:32 46.0500 -57.5300 281° West 431 798 10,973 94 Level FlightAware ADS-B
Sun 12:36:57 46.0840 -57.7970 280° West 423 784 11,521 129 Climbing FlightAware ADS-B
Sun 12:40:16 46.1520 -58.3360 281° West 415 769 11,582 15 Climbing FlightAware ADS-B
Sun 12:41:03 46.1500 -58.4333 281° West 410 760 11,582  Level Moncton Center
Sun 12:42:03 46.1833 -58.6000 286° West 410 760 11,582  Level Moncton Center
Sun 12:43:03 46.1833 -58.7667 270° West 410 760 11,582  Level Moncton Center
Sun 12:48:58 46.3140 -59.7340 270° West 393 727 11,582  Level FlightAware ADS-B
Sun 12:49:39 46.3260 -59.8390 279° West 392 726 11,582  Level FlightAware ADS-B
Sun 12:50:17 46.3370 -59.9410 279° West 392 726 11,582  Level FlightAware ADS-B
Sun 12:50:57 46.3470 -60.0430 278° West 392 726 11,582  Level FlightAware ADS-B
Sun 12:51:54 46.3630 -60.1890 279° West 394 729 11,582  Level FlightAware ADS-B
Sun 12:52:41 46.3760 -60.3160 278° West 393 727 11,582  Level FlightAware ADS-B
Sun 12:54:16 46.4010 -60.5600 279° West 396 734 11,582  Level FlightAware ADS-B
Sun 12:56:36 46.4380 -60.9300 278° West 400 740 11,582  Level FlightAware ADS-B
Sun 12:59:55 46.4890 -61.4600 278° West 403 747 11,582  Level FlightAware ADS-B
Sun 13:01:03 46.5000 -61.6333 278° West 400 740 11,582  Level Moncton Center
Sun 13:02:03 46.5000 -61.7667 270° West 400 740 11,582  Level Moncton Center
Sun 13:03:03 46.5167 -61.9333 278° West 390 723 11,582  Level Moncton Center
Sun 13:04:03 46.5333 -62.0833 279° West 400 740 11,582  Level Moncton Center
Sun 13:05:03 46.5333 -62.2500 270° West 390 723 11,582  Level Moncton Center
Sun 13:11:15 46.6330 -63.1570 270° West 388 719 11,582  Level FlightAware ADS-B
Sun 13:12:29 46.6450 -63.3210 276° West 388 719 11,582  Level FlightAware ADS-B
Sun 13:13:57 46.6590 -63.5160 276° West 388 719 11,582  Level FlightAware ADS-B
Sun 13:14:57 46.6680 -63.6480 276° West 388 719 11,582  Level FlightAware ADS-B
Sun 13:16:03 46.6833 -63.9833 276° West 390 723 11,582  Level Moncton Center
Sun 13:17:03 46.7000 -64.1333 279° West 380 703 11,582  Level Moncton Center
Sun 13:18:03 46.7167 -64.2833 279° West 380 703 11,582  Level Moncton Center
Sun 13:19:03 46.7167 -64.4500 270° West 380 703 11,582  Level Moncton Center
Sun 13:20:03 46.7333 -64.6000 279° West 380 703 11,582  Level Moncton Center
Sun 13:21:03 46.7333 -64.7333 270° West 380 703 11,582  Level Moncton Center
Sun 13:22:03 46.7500 -64.9167 278° West 380 703 11,582  Level Moncton Center
Sun 13:23:03 46.7667 -65.0500 280° West 380 703 11,582  Level Moncton Center
Sun 13:24:03 46.7667 -65.2333 270° West 380 703 11,582  Level Moncton Center
Sun 13:25:03 46.7833 -65.3667 280° West 380 703 11,582  Level Moncton Center
Sun 13:26:03 46.7833 -65.5167 270° West 380 703 11,582  Level Moncton Center
Sun 13:27:03 46.7833 -65.6667 270° West 380 703 11,582  Level Moncton Center
Sun 13:28:03 46.8000 -65.8333 278° West 380 703 11,582  Level Moncton Center
Sun 13:29:03 46.8000 -65.9833 270° West 380 703 11,582  Level Moncton Center
Sun 13:30:03 46.8167 -66.1333 279° West 380 703 11,582  Level Moncton Center
Sun 13:31:03 46.8333 -66.3000 278° West 380 703 11,582  Level Moncton Center
Sun 13:32:03 46.8333 -66.4500 270° West 380 703 11,582  Level Moncton Center
Sun 13:33:03 46.8500 -66.6000 279° West 380 703 11,582  Level Moncton Center
Sun 13:34:03 46.8333 -66.7500 261° West 380 703 11,582  Level Moncton Center
Sun 13:35:03 46.8500 -66.9167 278° West 380 703 11,582  Level Moncton Center
Sun 13:41:57 46.6840 -67.8610 278° West 372 689 11,582  Level FlightAware ADS-B
Sun 13:42:59 46.6500 -67.9970 250° West 372 689 11,582  Level FlightAware ADS-B
Sun 13:44:10 46.6150 -68.1390 250° West 372 689 11,582  Level FlightAware ADS-B
Sun 13:45:03 46.5667 -68.3333 250° West 360 666 11,582  Level Moncton Center
Sun 13:47:08 46.5022 -68.6183 252° West 375 695 11,582  Level Boston Center
Sun 13:48:07 46.4672 -68.7561 250° West 375 695 11,582  Level Boston Center
Sun 13:49:07 46.4319 -68.8969 250° West 375 695 11,582  Level Boston Center
Sun 13:50:07 46.3989 -69.0406 252° West 375 695 11,582  Level Boston Center
Sun 13:51:03 46.3500 -69.1667 241° Southwest 360 666 11,582  Level Moncton Center
Sun 13:56:38 46.1710 -69.9210 241° Southwest 368 681 11,582  Level FlightAware ADS-B
Sun 13:57:27 46.1333 -70.0333 241° Southwest 360 666 11,582  Level Montreal Center
Sun 13:58:27 46.0833 -70.1833 244° Southwest 370 686 11,582 -17 Level Montreal Center
Sun 14:04:43 45.9090 -71.0290 244° Southwest 368 681 11,460 -294 Descending FlightAware ADS-B
Sun 14:10:29 45.8320 -71.8910 263° West 339 628 8,047 -575 Descending FlightAware ADS-B
Sun 14:12:43 45.8030 -72.1840 262° West 332 615 6,858 -529 Descending FlightAware ADS-B
Sun 14:17:27 45.7333 -72.7667 219° Southwest 320 592 4,359 -502 Descending Montreal Center
Sun 14:18:07 45.7380 -72.8440 262° West 315 583 4,145 -579 Descending FlightAware ADS-B
Sun 14:18:27 45.7167 -72.9000 260° West 310 575 3,780 -777 Descending Montreal Center
Sun 14:19:27 45.7000 -73.0167 258° West 320 592 3,109 -427 Descending Montreal Center
Sun 14:20:27 45.6833 -73.1333 258° West 290 538 2,926 -320 Descending Montreal Center
Sun 14:21:27 45.6667 -73.2333 257° West 260 481 2,469 -640 Descending Montreal Center
Sun 14:22:27 45.6667 -73.3333 270° West 260 481 1,646 -640 Descending Montreal Center
Sun 14:23:00 45.4676 -73.5517 219° Southwest  Level FlightAware Approximate
Sun 14:23:27 45.6500 -73.4333 257° West 250 463 1,189  Level Montreal Center
Sun 14:29:20 45.4730 -73.7500 257° West 61 113 -663 Descending FlightAware ADS-B
Sun 14:29:36 45.4690 -73.7540 215° Southwest 38 71  Level FlightAware ADS-B
Sun 14:29:50 45.4670 -73.7560 215° Southwest 30 56  Level FlightAware ADS-B

Login

Don't have an account? Register now (free) for customized features, flight alerts, and more!